sensor_id;sensor_type;location;lat;lon;timestamp;temperature;humidity
50955;DHT22;36966;48.064;-0.792;2022-07-23T00:01:00;26.20;46.70
50955;DHT22;36966;48.064;-0.792;2022-07-23T00:03:19;26.20;46.70
50955;DHT22;36966;48.064;-0.792;2022-07-23T00:05:38;26.20;46.70
50955;DHT22;36966;48.064;-0.792;2022-07-23T00:07:58;26.20;46.70
50955;DHT22;36966;48.064;-0.792;2022-07-23T00:10:17;26.20;46.70
50955;DHT22;36966;48.064;-0.792;2022-07-23T00:12:37;26.10;46.70
50955;DHT22;36966;48.064;-0.792;2022-07-23T00:14:56;26.10;46.70
50955;DHT22;36966;48.064;-0.792;2022-07-23T00:17:15;26.10;46.70
50955;DHT22;36966;48.064;-0.792;2022-07-23T00:19:35;26.10;46.70
50955;DHT22;36966;48.064;-0.792;2022-07-23T00:21:54;26.10;46.70
50955;DHT22;36966;48.064;-0.792;2022-07-23T00:24:13;26.10;46.70
50955;DHT22;36966;48.064;-0.792;2022-07-23T00:26:32;26.10;46.70
50955;DHT22;36966;48.064;-0.792;2022-07-23T00:28:52;26.10;46.70
50955;DHT22;36966;48.064;-0.792;2022-07-23T00:31:11;26.10;46.80
50955;DHT22;36966;48.064;-0.792;2022-07-23T00:33:30;26.10;46.70
50955;DHT22;36966;48.064;-0.792;2022-07-23T00:35:50;26.10;46.80
50955;DHT22;36966;48.064;-0.792;2022-07-23T00:38:10;26.10;46.70
50955;DHT22;36966;48.064;-0.792;2022-07-23T00:40:30;26.10;46.70
50955;DHT22;36966;48.064;-0.792;2022-07-23T00:42:50;26.10;46.70
50955;DHT22;36966;48.064;-0.792;2022-07-23T00:45:10;26.00;46.70
50955;DHT22;36966;48.064;-0.792;2022-07-23T00:47:30;26.00;46.70
50955;DHT22;36966;48.064;-0.792;2022-07-23T00:49:49;26.00;46.70
50955;DHT22;36966;48.064;-0.792;2022-07-23T00:52:09;26.10;46.80
50955;DHT22;36966;48.064;-0.792;2022-07-23T00:54:29;26.00;46.70
50955;DHT22;36966;48.064;-0.792;2022-07-23T00:56:48;26.00;46.70
50955;DHT22;36966;48.064;-0.792;2022-07-23T00:59:08;26.00;46.70
50955;DHT22;36966;48.064;-0.792;2022-07-23T01:01:28;26.00;46.80
50955;DHT22;36966;48.064;-0.792;2022-07-23T01:03:47;26.00;46.70
50955;DHT22;36966;48.064;-0.792;2022-07-23T01:06:06;26.00;46.70
50955;DHT22;36966;48.064;-0.792;2022-07-23T01:08:25;26.00;46.70
50955;DHT22;36966;48.064;-0.792;2022-07-23T01:10:44;26.00;46.70
50955;DHT22;36966;48.064;-0.792;2022-07-23T01:13:09;26.00;46.70
50955;DHT22;36966;48.064;-0.792;2022-07-23T01:15:29;26.00;46.80
50955;DHT22;36966;48.064;-0.792;2022-07-23T01:17:49;26.00;46.80
50955;DHT22;36966;48.064;-0.792;2022-07-23T01:20:09;26.00;46.80
50955;DHT22;36966;48.064;-0.792;2022-07-23T01:22:29;26.00;46.70
50955;DHT22;36966;48.064;-0.792;2022-07-23T01:24:49;26.00;46.70
50955;DHT22;36966;48.064;-0.792;2022-07-23T01:27:08;26.00;46.70
50955;DHT22;36966;48.064;-0.792;2022-07-23T01:29:27;25.90;46.80
50955;DHT22;36966;48.064;-0.792;2022-07-23T01:31:46;26.00;46.80
50955;DHT22;36966;48.064;-0.792;2022-07-23T01:34:06;25.90;46.80
50955;DHT22;36966;48.064;-0.792;2022-07-23T01:36:26;26.00;46.80
50955;DHT22;36966;48.064;-0.792;2022-07-23T01:38:45;25.90;46.80
50955;DHT22;36966;48.064;-0.792;2022-07-23T01:41:05;25.90;46.80
50955;DHT22;36966;48.064;-0.792;2022-07-23T01:43:24;26.00;46.70
50955;DHT22;36966;48.064;-0.792;2022-07-23T01:45:43;25.90;46.70
50955;DHT22;36966;48.064;-0.792;2022-07-23T01:48:04;25.90;46.80
50955;DHT22;36966;48.064;-0.792;2022-07-23T01:50:23;25.90;46.80
50955;DHT22;36966;48.064;-0.792;2022-07-23T01:52:43;25.90;46.80
50955;DHT22;36966;48.064;-0.792;2022-07-23T01:55:02;25.90;46.80
50955;DHT22;36966;48.064;-0.792;2022-07-23T01:57:21;25.90;46.80
50955;DHT22;36966;48.064;-0.792;2022-07-23T01:59:41;25.90;46.90
50955;DHT22;36966;48.064;-0.792;2022-07-23T02:02:00;25.90;46.90
50955;DHT22;36966;48.064;-0.792;2022-07-23T02:04:20;25.90;46.80
50955;DHT22;36966;48.064;-0.792;2022-07-23T02:06:39;25.90;46.80
50955;DHT22;36966;48.064;-0.792;2022-07-23T02:08:58;25.90;46.90
50955;DHT22;36966;48.064;-0.792;2022-07-23T02:11:17;25.80;46.80
50955;DHT22;36966;48.064;-0.792;2022-07-23T02:13:36;25.80;46.80
50955;DHT22;36966;48.064;-0.792;2022-07-23T02:15:55;25.80;46.80
50955;DHT22;36966;48.064;-0.792;2022-07-23T02:18:14;25.80;46.80
50955;DHT22;36966;48.064;-0.792;2022-07-23T02:20:33;25.80;46.80
50955;DHT22;36966;48.064;-0.792;2022-07-23T02:22:53;25.80;46.80
50955;DHT22;36966;48.064;-0.792;2022-07-23T02:25:12;25.80;46.80
50955;DHT22;36966;48.064;-0.792;2022-07-23T02:27:31;25.80;46.80
50955;DHT22;36966;48.064;-0.792;2022-07-23T02:29:51;25.80;46.80
50955;DHT22;36966;48.064;-0.792;2022-07-23T02:32:10;25.80;46.70
50955;DHT22;36966;48.064;-0.792;2022-07-23T02:34:29;25.80;46.80
50955;DHT22;36966;48.064;-0.792;2022-07-23T02:36:48;25.80;46.70
50955;DHT22;36966;48.064;-0.792;2022-07-23T02:39:07;25.80;46.80
50955;DHT22;36966;48.064;-0.792;2022-07-23T02:41:27;25.80;46.80
50955;DHT22;36966;48.064;-0.792;2022-07-23T02:43:46;25.80;46.70
50955;DHT22;36966;48.064;-0.792;2022-07-23T02:46:05;25.80;46.70
50955;DHT22;36966;48.064;-0.792;2022-07-23T02:48:24;25.80;46.70
50955;DHT22;36966;48.064;-0.792;2022-07-23T02:50:43;25.80;46.70
50955;DHT22;36966;48.064;-0.792;2022-07-23T02:53:02;25.70;46.70
50955;DHT22;36966;48.064;-0.792;2022-07-23T02:55:22;25.80;46.70
50955;DHT22;36966;48.064;-0.792;2022-07-23T02:57:41;25.80;46.80
50955;DHT22;36966;48.064;-0.792;2022-07-23T03:00:00;25.80;46.70
50955;DHT22;36966;48.064;-0.792;2022-07-23T03:02:20;25.70;46.80
50955;DHT22;36966;48.064;-0.792;2022-07-23T03:04:39;25.70;46.80
50955;DHT22;36966;48.064;-0.792;2022-07-23T03:07:01;25.70;46.70
50955;DHT22;36966;48.064;-0.792;2022-07-23T03:09:20;25.70;46.80
50955;DHT22;36966;48.064;-0.792;2022-07-23T03:11:39;25.70;46.80
50955;DHT22;36966;48.064;-0.792;2022-07-23T03:13:58;25.70;46.80
50955;DHT22;36966;48.064;-0.792;2022-07-23T03:16:17;25.70;46.80
50955;DHT22;36966;48.064;-0.792;2022-07-23T03:18:36;25.70;46.80
50955;DHT22;36966;48.064;-0.792;2022-07-23T03:20:56;25.70;46.80
50955;DHT22;36966;48.064;-0.792;2022-07-23T03:23:16;25.70;46.80
50955;DHT22;36966;48.064;-0.792;2022-07-23T03:25:35;25.70;46.80
50955;DHT22;36966;48.064;-0.792;2022-07-23T03:27:54;25.70;46.90
50955;DHT22;36966;48.064;-0.792;2022-07-23T03:30:14;25.70;46.80
50955;DHT22;36966;48.064;-0.792;2022-07-23T03:32:33;25.70;46.90
50955;DHT22;36966;48.064;-0.792;2022-07-23T03:34:52;25.70;46.80
50955;DHT22;36966;48.064;-0.792;2022-07-23T03:37:12;25.70;46.90
50955;DHT22;36966;48.064;-0.792;2022-07-23T03:39:32;25.70;46.90
50955;DHT22;36966;48.064;-0.792;2022-07-23T03:41:51;25.70;46.80
50955;DHT22;36966;48.064;-0.792;2022-07-23T03:44:10;25.70;46.90
50955;DHT22;36966;48.064;-0.792;2022-07-23T03:46:29;25.70;46.90
50955;DHT22;36966;48.064;-0.792;2022-07-23T03:48:48;25.70;46.90
50955;DHT22;36966;48.064;-0.792;2022-07-23T03:51:07;25.70;46.80
50955;DHT22;36966;48.064;-0.792;2022-07-23T03:53:26;25.70;46.80
50955;DHT22;36966;48.064;-0.792;2022-07-23T03:55:46;25.60;46.90
50955;DHT22;36966;48.064;-0.792;2022-07-23T03:58:05;25.60;46.80
50955;DHT22;36966;48.064;-0.792;2022-07-23T04:00:24;25.60;46.80
50955;DHT22;36966;48.064;-0.792;2022-07-23T04:02:43;25.60;46.90
50955;DHT22;36966;48.064;-0.792;2022-07-23T04:05:02;25.70;46.90
50955;DHT22;36966;48.064;-0.792;2022-07-23T04:07:22;25.60;46.80
50955;DHT22;36966;48.064;-0.792;2022-07-23T04:09:42;25.60;46.80
50955;DHT22;36966;48.064;-0.792;2022-07-23T04:12:01;25.70;46.80
50955;DHT22;36966;48.064;-0.792;2022-07-23T04:14:20;25.70;46.80
50955;DHT22;36966;48.064;-0.792;2022-07-23T04:16:39;25.70;46.80
50955;DHT22;36966;48.064;-0.792;2022-07-23T04:18:59;25.70;46.80
50955;DHT22;36966;48.064;-0.792;2022-07-23T04:21:19;25.70;46.80
50955;DHT22;36966;48.064;-0.792;2022-07-23T04:23:38;25.70;46.70
50955;DHT22;36966;48.064;-0.792;2022-07-23T04:25:57;25.70;46.70
50955;DHT22;36966;48.064;-0.792;2022-07-23T04:28:16;25.70;46.60
50955;DHT22;36966;48.064;-0.792;2022-07-23T04:30:35;25.70;46.60
50955;DHT22;36966;48.064;-0.792;2022-07-23T04:32:54;25.70;46.60
50955;DHT22;36966;48.064;-0.792;2022-07-23T04:35:13;25.70;46.50
50955;DHT22;36966;48.064;-0.792;2022-07-23T04:37:32;25.70;46.50
50955;DHT22;36966;48.064;-0.792;2022-07-23T04:39:51;25.70;46.40
50955;DHT22;36966;48.064;-0.792;2022-07-23T04:42:10;25.70;46.40
50955;DHT22;36966;48.064;-0.792;2022-07-23T04:44:30;25.70;46.40
50955;DHT22;36966;48.064;-0.792;2022-07-23T04:46:49;25.70;46.30
50955;DHT22;36966;48.064;-0.792;2022-07-23T04:49:08;25.80;46.20
50955;DHT22;36966;48.064;-0.792;2022-07-23T04:51:27;25.80;46.20
50955;DHT22;36966;48.064;-0.792;2022-07-23T04:53:48;25.80;46.10
50955;DHT22;36966;48.064;-0.792;2022-07-23T04:56:07;25.80;46.10
50955;DHT22;36966;48.064;-0.792;2022-07-23T04:58:26;25.80;46.10
50955;DHT22;36966;48.064;-0.792;2022-07-23T05:00:45;25.80;46.00
50955;DHT22;36966;48.064;-0.792;2022-07-23T05:03:05;25.80;46.00
50955;DHT22;36966;48.064;-0.792;2022-07-23T05:05:25;25.80;45.90
50955;DHT22;36966;48.064;-0.792;2022-07-23T05:07:44;25.80;45.80
50955;DHT22;36966;48.064;-0.792;2022-07-23T05:10:04;25.80;45.80
50955;DHT22;36966;48.064;-0.792;2022-07-23T05:12:24;25.80;45.80
50955;DHT22;36966;48.064;-0.792;2022-07-23T05:14:43;25.80;45.80
50955;DHT22;36966;48.064;-0.792;2022-07-23T05:17:02;25.80;45.80
50955;DHT22;36966;48.064;-0.792;2022-07-23T05:19:21;25.90;45.80
50955;DHT22;36966;48.064;-0.792;2022-07-23T05:21:41;25.90;45.80
50955;DHT22;36966;48.064;-0.792;2022-07-23T05:24:00;25.90;45.80
50955;DHT22;36966;48.064;-0.792;2022-07-23T05:26:19;25.90;45.70
50955;DHT22;36966;48.064;-0.792;2022-07-23T05:28:38;25.80;45.70
50955;DHT22;36966;48.064;-0.792;2022-07-23T05:30:57;25.90;45.70
50955;DHT22;36966;48.064;-0.792;2022-07-23T05:33:18;25.90;45.70
50955;DHT22;36966;48.064;-0.792;2022-07-23T05:35:38;25.90;45.70
50955;DHT22;36966;48.064;-0.792;2022-07-23T05:37:57;25.90;45.60
50955;DHT22;36966;48.064;-0.792;2022-07-23T05:40:16;25.90;45.70
50955;DHT22;36966;48.064;-0.792;2022-07-23T05:42:38;25.90;45.70
50955;DHT22;36966;48.064;-0.792;2022-07-23T05:44:57;25.90;45.70
50955;DHT22;36966;48.064;-0.792;2022-07-23T05:47:17;25.90;45.70
50955;DHT22;36966;48.064;-0.792;2022-07-23T05:49:37;25.90;45.70
50955;DHT22;36966;48.064;-0.792;2022-07-23T05:51:58;26.00;45.70
50955;DHT22;36966;48.064;-0.792;2022-07-23T05:54:17;26.00;45.60
50955;DHT22;36966;48.064;-0.792;2022-07-23T05:56:36;26.00;45.60
50955;DHT22;36966;48.064;-0.792;2022-07-23T05:58:56;26.00;45.60
50955;DHT22;36966;48.064;-0.792;2022-07-23T06:01:15;26.00;45.60
50955;DHT22;36966;48.064;-0.792;2022-07-23T06:03:34;26.00;45.70
50955;DHT22;36966;48.064;-0.792;2022-07-23T06:05:53;26.00;45.60
50955;DHT22;36966;48.064;-0.792;2022-07-23T06:08:12;26.00;45.60
50955;DHT22;36966;48.064;-0.792;2022-07-23T06:10:32;26.00;45.70
50955;DHT22;36966;48.064;-0.792;2022-07-23T06:12:51;26.00;45.70
50955;DHT22;36966;48.064;-0.792;2022-07-23T06:15:10;26.00;45.70
50955;DHT22;36966;48.064;-0.792;2022-07-23T06:17:30;26.00;45.70
50955;DHT22;36966;48.064;-0.792;2022-07-23T06:19:50;26.00;45.70
50955;DHT22;36966;48.064;-0.792;2022-07-23T06:22:09;26.00;45.70
50955;DHT22;36966;48.064;-0.792;2022-07-23T06:24:28;26.00;45.80
50955;DHT22;36966;48.064;-0.792;2022-07-23T06:26:47;26.00;45.80
50955;DHT22;36966;48.064;-0.792;2022-07-23T06:29:06;26.00;45.80
50955;DHT22;36966;48.064;-0.792;2022-07-23T06:31:26;26.00;45.90
50955;DHT22;36966;48.064;-0.792;2022-07-23T06:33:45;26.00;45.80
50955;DHT22;36966;48.064;-0.792;2022-07-23T06:36:05;25.90;45.80
50955;DHT22;36966;48.064;-0.792;2022-07-23T06:38:24;26.00;45.90
50955;DHT22;36966;48.064;-0.792;2022-07-23T06:40:44;26.00;45.90
50955;DHT22;36966;48.064;-0.792;2022-07-23T06:43:04;26.00;45.90
50955;DHT22;36966;48.064;-0.792;2022-07-23T06:45:23;25.90;45.90
50955;DHT22;36966;48.064;-0.792;2022-07-23T06:47:42;25.90;45.90
50955;DHT22;36966;48.064;-0.792;2022-07-23T06:50:02;26.00;46.00
50955;DHT22;36966;48.064;-0.792;2022-07-23T06:52:21;26.00;46.00
50955;DHT22;36966;48.064;-0.792;2022-07-23T06:54:40;26.00;46.00
50955;DHT22;36966;48.064;-0.792;2022-07-23T06:56:59;26.00;46.00
50955;DHT22;36966;48.064;-0.792;2022-07-23T06:59:18;26.00;46.10
50955;DHT22;36966;48.064;-0.792;2022-07-23T07:01:38;25.90;46.10
50955;DHT22;36966;48.064;-0.792;2022-07-23T07:03:57;26.00;46.10
50955;DHT22;36966;48.064;-0.792;2022-07-23T07:06:16;26.00;46.10
50955;DHT22;36966;48.064;-0.792;2022-07-23T07:08:35;26.00;46.10
50955;DHT22;36966;48.064;-0.792;2022-07-23T07:10:55;26.00;46.10
50955;DHT22;36966;48.064;-0.792;2022-07-23T07:13:14;26.00;46.20
50955;DHT22;36966;48.064;-0.792;2022-07-23T07:15:33;26.00;46.20
50955;DHT22;36966;48.064;-0.792;2022-07-23T07:17:52;26.00;46.20
50955;DHT22;36966;48.064;-0.792;2022-07-23T07:20:11;26.00;46.20
50955;DHT22;36966;48.064;-0.792;2022-07-23T07:22:30;26.00;46.20
50955;DHT22;36966;48.064;-0.792;2022-07-23T07:24:49;26.00;46.20
50955;DHT22;36966;48.064;-0.792;2022-07-23T07:27:09;26.00;46.30
50955;DHT22;36966;48.064;-0.792;2022-07-23T07:29:28;26.00;46.30
50955;DHT22;36966;48.064;-0.792;2022-07-23T07:31:47;26.00;46.30
50955;DHT22;36966;48.064;-0.792;2022-07-23T07:34:06;26.00;46.40
50955;DHT22;36966;48.064;-0.792;2022-07-23T07:36:25;26.00;46.30
50955;DHT22;36966;48.064;-0.792;2022-07-23T07:38:44;26.00;46.40
50955;DHT22;36966;48.064;-0.792;2022-07-23T07:41:04;26.00;46.40
50955;DHT22;36966;48.064;-0.792;2022-07-23T07:43:24;26.00;46.40
50955;DHT22;36966;48.064;-0.792;2022-07-23T07:45:43;26.00;46.50
50955;DHT22;36966;48.064;-0.792;2022-07-23T07:48:02;26.00;46.50
50955;DHT22;36966;48.064;-0.792;2022-07-23T07:50:22;26.00;46.50
50955;DHT22;36966;48.064;-0.792;2022-07-23T07:52:42;26.00;46.60
50955;DHT22;36966;48.064;-0.792;2022-07-23T07:55:02;26.00;46.50
50955;DHT22;36966;48.064;-0.792;2022-07-23T07:57:21;26.00;46.60
50955;DHT22;36966;48.064;-0.792;2022-07-23T07:59:41;26.00;46.60
50955;DHT22;36966;48.064;-0.792;2022-07-23T08:02:00;26.00;46.60
50955;DHT22;36966;48.064;-0.792;2022-07-23T08:04:20;26.00;46.60
50955;DHT22;36966;48.064;-0.792;2022-07-23T08:06:39;26.00;46.70
50955;DHT22;36966;48.064;-0.792;2022-07-23T08:08:58;26.00;46.60
50955;DHT22;36966;48.064;-0.792;2022-07-23T08:11:17;26.00;46.70
50955;DHT22;36966;48.064;-0.792;2022-07-23T08:13:37;26.00;46.70
50955;DHT22;36966;48.064;-0.792;2022-07-23T08:15:56;26.00;46.60
50955;DHT22;36966;48.064;-0.792;2022-07-23T08:18:15;26.00;46.60
50955;DHT22;36966;48.064;-0.792;2022-07-23T08:20:34;26.00;46.60
50955;DHT22;36966;48.064;-0.792;2022-07-23T08:25:19;26.00;46.60
50955;DHT22;36966;48.064;-0.792;2022-07-23T08:27:39;26.00;46.60
50955;DHT22;36966;48.064;-0.792;2022-07-23T08:29:58;26.00;46.60
50955;DHT22;36966;48.064;-0.792;2022-07-23T08:32:17;26.00;46.50
50955;DHT22;36966;48.064;-0.792;2022-07-23T08:34:36;26.00;46.50
50955;DHT22;36966;48.064;-0.792;2022-07-23T08:36:55;26.00;46.50
50955;DHT22;36966;48.064;-0.792;2022-07-23T08:39:15;26.00;46.50
50955;DHT22;36966;48.064;-0.792;2022-07-23T08:41:34;26.00;46.50
50955;DHT22;36966;48.064;-0.792;2022-07-23T08:43:54;26.10;46.40
50955;DHT22;36966;48.064;-0.792;2022-07-23T08:46:14;26.10;46.40
50955;DHT22;36966;48.064;-0.792;2022-07-23T08:48:35;26.10;46.40
50955;DHT22;36966;48.064;-0.792;2022-07-23T08:50:57;26.10;46.40
50955;DHT22;36966;48.064;-0.792;2022-07-23T08:53:18;26.10;46.40
50955;DHT22;36966;48.064;-0.792;2022-07-23T08:55:38;26.10;46.40
50955;DHT22;36966;48.064;-0.792;2022-07-23T08:57:57;26.10;46.40
50955;DHT22;36966;48.064;-0.792;2022-07-23T09:00:18;26.20;46.50
50955;DHT22;36966;48.064;-0.792;2022-07-23T09:02:39;26.20;46.40
50955;DHT22;36966;48.064;-0.792;2022-07-23T09:04:59;26.20;46.50
50955;DHT22;36966;48.064;-0.792;2022-07-23T09:07:19;26.20;46.50
50955;DHT22;36966;48.064;-0.792;2022-07-23T09:09:39;26.30;46.50
50955;DHT22;36966;48.064;-0.792;2022-07-23T09:12:10;26.30;46.40
50955;DHT22;36966;48.064;-0.792;2022-07-23T09:15:03;26.30;46.50
50955;DHT22;36966;48.064;-0.792;2022-07-23T09:17:22;26.30;46.40
50955;DHT22;36966;48.064;-0.792;2022-07-23T09:19:43;26.30;46.50
50955;DHT22;36966;48.064;-0.792;2022-07-23T09:22:21;26.40;46.60
50955;DHT22;36966;48.064;-0.792;2022-07-23T09:25:11;26.40;46.60
50955;DHT22;36966;48.064;-0.792;2022-07-23T09:27:48;26.40;46.50
50955;DHT22;36966;48.064;-0.792;2022-07-23T09:30:08;26.50;46.50
50955;DHT22;36966;48.064;-0.792;2022-07-23T09:32:28;26.50;46.40
50955;DHT22;36966;48.064;-0.792;2022-07-23T09:34:49;26.50;46.50
50955;DHT22;36966;48.064;-0.792;2022-07-23T09:37:10;26.50;46.50
50955;DHT22;36966;48.064;-0.792;2022-07-23T09:39:32;26.50;46.60
50955;DHT22;36966;48.064;-0.792;2022-07-23T09:41:51;26.60;46.60
50955;DHT22;36966;48.064;-0.792;2022-07-23T09:44:16;26.60;46.50
50955;DHT22;36966;48.064;-0.792;2022-07-23T09:46:37;26.60;46.50
50955;DHT22;36966;48.064;-0.792;2022-07-23T09:49:10;26.50;46.40
50955;DHT22;36966;48.064;-0.792;2022-07-23T09:51:30;26.60;46.50
50955;DHT22;36966;48.064;-0.792;2022-07-23T09:53:52;26.50;46.50
50955;DHT22;36966;48.064;-0.792;2022-07-23T09:56:14;26.50;46.60
50955;DHT22;36966;48.064;-0.792;2022-07-23T09:58:36;26.50;46.50
50955;DHT22;36966;48.064;-0.792;2022-07-23T10:01:02;26.50;46.60
50955;DHT22;36966;48.064;-0.792;2022-07-23T10:03:21;26.50;46.60
50955;DHT22;36966;48.064;-0.792;2022-07-23T10:05:42;26.50;46.60
50955;DHT22;36966;48.064;-0.792;2022-07-23T10:08:03;26.60;46.80
50955;DHT22;36966;48.064;-0.792;2022-07-23T10:10:25;26.60;46.60
50955;DHT22;36966;48.064;-0.792;2022-07-23T10:12:45;26.60;46.60
50955;DHT22;36966;48.064;-0.792;2022-07-23T10:15:10;26.70;46.50
50955;DHT22;36966;48.064;-0.792;2022-07-23T10:17:30;26.70;46.60
50955;DHT22;36966;48.064;-0.792;2022-07-23T10:19:49;26.70;46.60
50955;DHT22;36966;48.064;-0.792;2022-07-23T10:22:14;26.70;46.50
50955;DHT22;36966;48.064;-0.792;2022-07-23T10:34:54;26.80;46.30
50955;DHT22;36966;48.064;-0.792;2022-07-23T10:37:17;26.90;46.20
50955;DHT22;36966;48.064;-0.792;2022-07-23T10:39:46;26.90;46.10
50955;DHT22;36966;48.064;-0.792;2022-07-23T10:42:14;27.00;46.00
50955;DHT22;36966;48.064;-0.792;2022-07-23T10:44:39;27.00;46.00
50955;DHT22;36966;48.064;-0.792;2022-07-23T10:47:02;27.00;45.90
50955;DHT22;36966;48.064;-0.792;2022-07-23T10:49:32;27.10;45.80
50955;DHT22;36966;48.064;-0.792;2022-07-23T10:52:27;27.10;45.80
50955;DHT22;36966;48.064;-0.792;2022-07-23T10:57:11;27.10;45.90
50955;DHT22;36966;48.064;-0.792;2022-07-23T10:59:31;27.10;45.90
50955;DHT22;36966;48.064;-0.792;2022-07-23T11:01:50;27.10;45.80
50955;DHT22;36966;48.064;-0.792;2022-07-23T11:04:09;27.20;45.90
50955;DHT22;36966;48.064;-0.792;2022-07-23T11:09:24;27.20;45.60
50955;DHT22;36966;48.064;-0.792;2022-07-23T11:11:46;27.20;45.50
50955;DHT22;36966;48.064;-0.792;2022-07-23T11:14:05;27.20;45.40
50955;DHT22;36966;48.064;-0.792;2022-07-23T11:16:25;27.30;45.30
50955;DHT22;36966;48.064;-0.792;2022-07-23T11:24:22;27.30;45.20
50955;DHT22;36966;48.064;-0.792;2022-07-23T11:31:54;27.30;45.20
50955;DHT22;36966;48.064;-0.792;2022-07-23T11:34:33;27.40;45.10
50955;DHT22;36966;48.064;-0.792;2022-07-23T11:36:52;27.40;45.00
50955;DHT22;36966;48.064;-0.792;2022-07-23T11:39:11;27.40;45.00
50955;DHT22;36966;48.064;-0.792;2022-07-23T11:41:43;27.40;44.90
50955;DHT22;36966;48.064;-0.792;2022-07-23T11:44:03;27.50;44.90
50955;DHT22;36966;48.064;-0.792;2022-07-23T11:46:22;27.50;44.90
50955;DHT22;36966;48.064;-0.792;2022-07-23T11:48:42;27.50;44.90
50955;DHT22;36966;48.064;-0.792;2022-07-23T11:51:01;27.60;44.70
50955;DHT22;36966;48.064;-0.792;2022-07-23T11:53:33;27.60;44.50
50955;DHT22;36966;48.064;-0.792;2022-07-23T11:55:53;27.60;44.50
50955;DHT22;36966;48.064;-0.792;2022-07-23T11:58:14;27.60;44.60
50955;DHT22;36966;48.064;-0.792;2022-07-23T12:00:33;27.70;44.40
50955;DHT22;36966;48.064;-0.792;2022-07-23T12:02:55;27.60;44.30
50955;DHT22;36966;48.064;-0.792;2022-07-23T12:05:23;27.70;44.30
50955;DHT22;36966;48.064;-0.792;2022-07-23T12:07:44;27.70;44.40
50955;DHT22;36966;48.064;-0.792;2022-07-23T12:10:28;27.70;44.40
50955;DHT22;36966;48.064;-0.792;2022-07-23T12:13:00;27.70;44.20
50955;DHT22;36966;48.064;-0.792;2022-07-23T12:15:23;27.70;44.20
50955;DHT22;36966;48.064;-0.792;2022-07-23T12:17:45;27.80;44.20
50955;DHT22;36966;48.064;-0.792;2022-07-23T12:20:07;27.80;44.30
50955;DHT22;36966;48.064;-0.792;2022-07-23T12:22:36;27.80;44.10
50955;DHT22;36966;48.064;-0.792;2022-07-23T12:25:01;27.80;44.10
50955;DHT22;36966;48.064;-0.792;2022-07-23T12:27:23;27.80;44.00
50955;DHT22;36966;48.064;-0.792;2022-07-23T12:29:42;27.80;43.90
50955;DHT22;36966;48.064;-0.792;2022-07-23T12:32:01;27.90;43.80
50955;DHT22;36966;48.064;-0.792;2022-07-23T12:34:21;27.90;43.90
50955;DHT22;36966;48.064;-0.792;2022-07-23T12:36:40;27.90;43.80
50955;DHT22;36966;48.064;-0.792;2022-07-23T12:38:59;27.90;43.90
50955;DHT22;36966;48.064;-0.792;2022-07-23T12:41:19;27.80;43.80
50955;DHT22;36966;48.064;-0.792;2022-07-23T12:43:41;27.90;43.60
50955;DHT22;36966;48.064;-0.792;2022-07-23T12:53:39;27.90;43.80
50955;DHT22;36966;48.064;-0.792;2022-07-23T12:56:04;27.90;43.70
50955;DHT22;36966;48.064;-0.792;2022-07-23T12:58:24;27.90;43.90
50955;DHT22;36966;48.064;-0.792;2022-07-23T13:03:24;27.90;43.60
50955;DHT22;36966;48.064;-0.792;2022-07-23T13:05:43;27.90;43.80
50955;DHT22;36966;48.064;-0.792;2022-07-23T13:08:03;27.90;43.80
50955;DHT22;36966;48.064;-0.792;2022-07-23T13:10:22;27.90;43.80
50955;DHT22;36966;48.064;-0.792;2022-07-23T13:12:41;27.90;43.60
50955;DHT22;36966;48.064;-0.792;2022-07-23T13:15:00;27.90;43.70
50955;DHT22;36966;48.064;-0.792;2022-07-23T13:17:19;27.90;43.50
50955;DHT22;36966;48.064;-0.792;2022-07-23T13:19:38;27.90;43.50
50955;DHT22;36966;48.064;-0.792;2022-07-23T13:21:58;27.90;43.50
50955;DHT22;36966;48.064;-0.792;2022-07-23T13:24:17;27.90;43.60
50955;DHT22;36966;48.064;-0.792;2022-07-23T13:26:37;28.00;43.60
50955;DHT22;36966;48.064;-0.792;2022-07-23T13:28:56;27.90;43.60
50955;DHT22;36966;48.064;-0.792;2022-07-23T13:31:17;27.80;43.40
50955;DHT22;36966;48.064;-0.792;2022-07-23T13:33:36;27.80;43.40
50955;DHT22;36966;48.064;-0.792;2022-07-23T13:35:55;27.90;43.50
50955;DHT22;36966;48.064;-0.792;2022-07-23T13:38:15;27.80;43.50
50955;DHT22;36966;48.064;-0.792;2022-07-23T13:40:38;27.90;43.40
50955;DHT22;36966;48.064;-0.792;2022-07-23T13:42:58;27.80;43.50
50955;DHT22;36966;48.064;-0.792;2022-07-23T13:45:17;27.80;43.50
50955;DHT22;36966;48.064;-0.792;2022-07-23T13:47:37;27.90;43.40
50955;DHT22;36966;48.064;-0.792;2022-07-23T13:49:56;27.80;43.40
50955;DHT22;36966;48.064;-0.792;2022-07-23T13:52:15;27.80;43.40
50955;DHT22;36966;48.064;-0.792;2022-07-23T13:54:36;27.80;43.40
50955;DHT22;36966;48.064;-0.792;2022-07-23T13:56:55;27.80;43.30
50955;DHT22;36966;48.064;-0.792;2022-07-23T13:59:14;27.80;43.30
50955;DHT22;36966;48.064;-0.792;2022-07-23T14:01:34;27.80;43.30
50955;DHT22;36966;48.064;-0.792;2022-07-23T14:03:53;27.80;43.40
50955;DHT22;36966;48.064;-0.792;2022-07-23T14:06:12;27.80;43.40
50955;DHT22;36966;48.064;-0.792;2022-07-23T14:08:32;27.80;43.20
50955;DHT22;36966;48.064;-0.792;2022-07-23T14:10:51;27.80;43.20
50955;DHT22;36966;48.064;-0.792;2022-07-23T14:13:10;27.80;43.00
50955;DHT22;36966;48.064;-0.792;2022-07-23T14:15:31;27.80;42.80
50955;DHT22;36966;48.064;-0.792;2022-07-23T14:17:50;27.80;42.90
50955;DHT22;36966;48.064;-0.792;2022-07-23T14:20:11;27.80;42.70
50955;DHT22;36966;48.064;-0.792;2022-07-23T14:22:31;27.80;42.90
50955;DHT22;36966;48.064;-0.792;2022-07-23T14:24:51;27.80;43.00
50955;DHT22;36966;48.064;-0.792;2022-07-23T14:27:10;27.80;43.00
50955;DHT22;36966;48.064;-0.792;2022-07-23T14:29:30;27.70;43.00
50955;DHT22;36966;48.064;-0.792;2022-07-23T14:31:49;27.80;43.00
50955;DHT22;36966;48.064;-0.792;2022-07-23T14:34:09;27.70;43.00
50955;DHT22;36966;48.064;-0.792;2022-07-23T14:36:28;27.80;42.80
50955;DHT22;36966;48.064;-0.792;2022-07-23T14:38:47;27.80;42.90
50955;DHT22;36966;48.064;-0.792;2022-07-23T14:41:07;27.70;42.80
50955;DHT22;36966;48.064;-0.792;2022-07-23T14:43:27;27.80;42.80
50955;DHT22;36966;48.064;-0.792;2022-07-23T14:45:46;27.80;42.90
50955;DHT22;36966;48.064;-0.792;2022-07-23T14:48:05;27.70;42.80
50955;DHT22;36966;48.064;-0.792;2022-07-23T14:50:24;27.70;42.80
50955;DHT22;36966;48.064;-0.792;2022-07-23T14:52:43;27.70;42.80
50955;DHT22;36966;48.064;-0.792;2022-07-23T14:55:03;27.80;42.70
50955;DHT22;36966;48.064;-0.792;2022-07-23T14:57:22;27.70;42.70
50955;DHT22;36966;48.064;-0.792;2022-07-23T14:59:41;27.80;42.70
50955;DHT22;36966;48.064;-0.792;2022-07-23T15:02:01;27.70;42.80
50955;DHT22;36966;48.064;-0.792;2022-07-23T15:04:21;27.70;42.70
50955;DHT22;36966;48.064;-0.792;2022-07-23T15:06:41;27.70;42.80
50955;DHT22;36966;48.064;-0.792;2022-07-23T15:09:01;27.70;42.80
50955;DHT22;36966;48.064;-0.792;2022-07-23T15:11:21;27.70;42.70